createdAt,value
2018-11-27T00:01:56.142Z,18.93
2018-11-27T00:04:26.965Z,19.17
2018-11-27T00:06:57.662Z,19.47
2018-11-27T00:09:28.375Z,19.10
2018-11-27T00:11:59.161Z,19.47
2018-11-27T00:14:29.971Z,19.97
2018-11-27T00:17:00.739Z,19.27
2018-11-27T00:19:31.533Z,18.97
2018-11-27T00:22:02.302Z,19.27
2018-11-27T00:24:33.127Z,19.00
2018-11-27T00:27:03.932Z,19.00
2018-11-27T00:29:34.623Z,19.47
2018-11-27T00:32:05.472Z,18.80
2018-11-27T00:34:36.266Z,19.17
2018-11-27T00:37:07.015Z,18.93
2018-11-27T00:39:37.760Z,18.50
2018-11-27T00:42:08.496Z,19.20
2018-11-27T00:44:39.255Z,19.30
2018-11-27T00:47:09.967Z,19.13
2018-11-27T00:49:40.692Z,19.40
2018-11-27T00:52:11.425Z,18.97
2018-11-27T00:54:42.073Z,17.83
2018-11-27T00:57:12.740Z,19.27
2018-11-27T00:59:43.448Z,19.03
2018-11-27T01:02:14.210Z,18.63
2018-11-27T01:04:44.852Z,18.60
2018-11-27T01:07:15.594Z,18.53
2018-11-27T01:09:46.270Z,19.03
2018-11-27T01:12:16.950Z,19.40
2018-11-27T01:14:47.649Z,18.83
2018-11-27T01:17:18.348Z,18.37
2018-11-27T01:19:49.010Z,19.63
2018-11-27T01:22:19.729Z,18.33
2018-11-27T01:24:50.486Z,17.97
2018-11-27T01:27:21.200Z,19.03
2018-11-27T01:29:51.921Z,19.07
2018-11-27T01:32:22.637Z,19.87
2018-11-27T01:34:53.327Z,19.20
2018-11-27T01:37:24.018Z,19.53
2018-11-27T01:39:54.752Z,18.37
2018-11-27T01:42:25.425Z,18.53
2018-11-27T01:44:56.144Z,19.40
2018-11-27T01:47:26.909Z,19.30
2018-11-27T01:49:57.582Z,18.90
2018-11-27T01:52:28.313Z,20.00
2018-11-27T01:54:59.029Z,18.27
2018-11-27T01:57:29.711Z,18.83
2018-11-27T02:00:00.451Z,18.87
2018-11-27T02:02:31.149Z,17.63
2018-11-27T02:05:01.899Z,19.03
2018-11-27T02:07:32.607Z,19.03
2018-11-27T02:10:03.704Z,18.50
2018-11-27T02:12:34.561Z,19.30
2018-11-27T02:15:07.198Z,20.10
2018-11-27T02:17:37.947Z,19.03
2018-11-27T02:20:11.140Z,17.77
2018-11-27T02:22:42.223Z,19.10
2018-11-27T02:25:29.446Z,19.53
2018-11-27T02:28:00.197Z,18.90
2018-11-27T02:30:30.880Z,19.33
2018-11-27T02:33:01.584Z,19.37
2018-11-27T02:35:32.264Z,18.80
2018-11-27T02:38:03.050Z,19.40
2018-11-27T02:40:33.823Z,19.67
2018-11-27T02:43:04.534Z,18.87
2018-11-27T02:45:35.255Z,19.50
2018-11-27T02:48:07.575Z,18.77
2018-11-27T02:50:38.425Z,18.67
2018-11-27T02:53:09.172Z,18.77
2018-11-27T02:55:39.859Z,18.83
2018-11-27T02:58:10.612Z,19.17
2018-11-27T03:00:41.318Z,19.93
2018-11-27T03:03:12.015Z,18.83
2018-11-27T03:05:42.744Z,19.60
2018-11-27T03:08:13.430Z,19.00
2018-11-27T03:10:44.099Z,19.00
2018-11-27T03:13:14.804Z,20.73
2018-11-27T03:15:45.530Z,18.23
2018-11-27T03:18:16.206Z,18.87
2018-11-27T03:20:46.864Z,19.57
2018-11-27T03:23:17.627Z,19.00
2018-11-27T03:25:48.319Z,20.00
2018-11-27T03:28:19.074Z,19.57
2018-11-27T03:30:49.736Z,19.07
2018-11-27T03:33:20.430Z,19.33
2018-11-27T03:35:51.170Z,20.80
2018-11-27T03:38:21.851Z,18.87
2018-11-27T03:40:52.538Z,19.00
2018-11-27T03:43:23.297Z,19.00
2018-11-27T03:45:53.954Z,18.73
2018-11-27T03:48:24.666Z,18.73
2018-11-27T03:50:55.358Z,19.50
2018-11-27T03:53:26.053Z,18.77
2018-11-27T03:55:56.815Z,19.63
2018-11-27T03:58:27.567Z,18.60
2018-11-27T04:00:58.289Z,18.53
2018-11-27T04:03:29.011Z,19.33
2018-11-27T04:05:59.710Z,19.93
2018-11-27T04:08:30.400Z,20.40
2018-11-27T04:11:01.153Z,19.27
2018-11-27T04:13:31.841Z,18.97
2018-11-27T04:16:02.642Z,19.63
2018-11-27T04:18:33.312Z,17.40
2018-11-27T04:21:04.012Z,19.07
2018-11-27T04:23:34.790Z,19.67
2018-11-27T04:26:05.644Z,18.97
2018-11-27T04:28:36.449Z,18.93
2018-11-27T04:31:07.216Z,19.30
2018-11-27T04:33:38.005Z,19.53
2018-11-27T04:36:08.724Z,18.83
2018-11-27T04:38:39.570Z,19.53
2018-11-27T04:41:10.245Z,19.43
2018-11-27T04:43:41.022Z,18.67
2018-11-27T04:46:11.725Z,18.73
2018-11-27T04:48:42.564Z,19.13
2018-11-27T04:51:13.250Z,19.07
2018-11-27T04:53:43.981Z,18.53
2018-11-27T04:56:14.664Z,18.73
2018-11-27T04:58:45.412Z,19.23
2018-11-27T05:01:16.084Z,19.07
2018-11-27T05:03:46.826Z,19.33
2018-11-27T05:06:17.531Z,18.30
2018-11-27T05:08:48.227Z,18.53
2018-11-27T05:11:18.891Z,19.40
2018-11-27T05:13:49.626Z,18.57
2018-11-27T05:16:20.272Z,18.83
2018-11-27T05:18:50.990Z,19.00
2018-11-27T05:21:21.661Z,18.47
2018-11-27T05:23:52.371Z,18.20
2018-11-27T05:26:23.025Z,18.80
2018-11-27T05:28:53.740Z,18.80
2018-11-27T05:31:24.494Z,18.77
2018-11-27T05:33:55.221Z,18.30
2018-11-27T05:36:25.965Z,19.10
2018-11-27T05:38:56.626Z,19.10
2018-11-27T05:41:27.326Z,19.40
2018-11-27T05:43:58.951Z,18.93
2018-11-27T05:46:29.645Z,19.30
2018-11-27T05:49:00.364Z,18.67
2018-11-27T05:51:31.086Z,18.93
2018-11-27T05:54:01.805Z,18.60
2018-11-27T05:56:32.512Z,19.63
2018-11-27T05:59:03.189Z,19.50
2018-11-27T06:01:34.939Z,19.90
2018-11-27T06:04:06.121Z,18.43
2018-11-27T06:06:36.884Z,19.77
2018-11-27T06:09:11.099Z,19.00
2018-11-27T06:11:42.295Z,19.93
2018-11-27T06:14:13.086Z,17.50
2018-11-27T06:16:43.930Z,18.97
2018-11-27T06:19:14.614Z,18.93
2018-11-27T06:21:45.333Z,17.90
2018-11-27T06:24:16.018Z,18.17
2018-11-27T06:26:46.861Z,18.37
2018-11-27T06:29:18.683Z,19.07
2018-11-27T06:31:48.416Z,19.20
2018-11-27T06:34:19.151Z,18.27
2018-11-27T06:36:50.003Z,19.77
2018-11-27T06:39:20.663Z,19.57
2018-11-27T06:41:51.450Z,19.57
2018-11-27T06:44:22.094Z,19.10
2018-11-27T06:46:52.888Z,19.07
2018-11-27T06:49:23.553Z,19.33
2018-11-27T06:51:57.119Z,20.07
2018-11-27T06:54:27.935Z,18.20
2018-11-27T06:56:58.685Z,19.17
2018-11-27T06:59:29.360Z,20.13
2018-11-27T07:02:00.090Z,18.70
2018-11-27T07:04:30.781Z,19.23
2018-11-27T07:07:01.528Z,19.30
2018-11-27T07:09:32.289Z,18.63
2018-11-27T07:12:03.097Z,18.47
2018-11-27T07:14:33.813Z,16.60
2018-11-27T07:17:04.518Z,18.30
2018-11-27T07:19:35.279Z,17.50
2018-11-27T07:22:06.296Z,18.03
2018-11-27T07:24:37.006Z,17.93
2018-11-27T07:27:07.738Z,17.13
2018-11-27T07:29:38.446Z,18.00
2018-11-27T07:32:09.540Z,17.63
2018-11-27T07:34:39.947Z,18.37
2018-11-27T07:37:10.623Z,18.73
2018-11-27T07:39:41.304Z,16.43
2018-11-27T07:42:11.991Z,18.03
2018-11-27T07:44:42.691Z,17.90
2018-11-27T07:47:13.315Z,17.17
2018-11-27T07:49:44.036Z,18.23
2018-11-27T07:52:14.688Z,16.53
2018-11-27T07:54:45.429Z,18.27
2018-11-27T07:57:16.178Z,16.90
2018-11-27T07:59:46.931Z,17.60
2018-11-27T08:02:17.610Z,17.20
2018-11-27T08:04:48.428Z,17.13
2018-11-27T08:07:19.594Z,17.50
2018-11-27T08:09:50.390Z,17.57
2018-11-27T08:12:21.146Z,18.00
2018-11-27T08:14:51.883Z,16.90
2018-11-27T08:17:22.625Z,16.97
2018-11-27T08:19:53.313Z,17.40
2018-11-27T08:22:23.988Z,17.50
2018-11-27T08:24:54.726Z,17.60
2018-11-27T08:27:25.503Z,17.77
2018-11-27T08:29:56.196Z,16.80
2018-11-27T08:32:26.849Z,17.03
2018-11-27T08:34:57.571Z,17.73
2018-11-27T08:37:28.280Z,16.70
2018-11-27T08:39:58.910Z,17.20
2018-11-27T08:42:29.576Z,16.83
2018-11-27T08:45:00.270Z,16.93
2018-11-27T08:47:30.992Z,17.70
2018-11-27T08:50:01.773Z,16.83
2018-11-27T08:52:32.541Z,16.63
2018-11-27T08:55:03.260Z,16.83
2018-11-27T08:57:34.000Z,18.00
2018-11-27T09:00:09.709Z,16.27
2018-11-27T09:02:40.424Z,17.27
2018-11-27T09:05:12.075Z,17.30
2018-11-27T09:07:43.414Z,16.43
2018-11-27T09:10:19.960Z,17.47
2018-11-27T09:12:50.807Z,17.27
2018-11-27T09:15:23.081Z,17.40
2018-11-27T09:18:05.830Z,16.50
2018-11-27T09:20:38.171Z,17.20
2018-11-27T09:23:08.926Z,17.13
2018-11-27T09:25:39.694Z,17.10
2018-11-27T09:28:10.439Z,17.23
2018-11-27T09:30:41.224Z,16.83
2018-11-27T09:33:12.326Z,17.80
2018-11-27T09:35:43.171Z,16.67
2018-11-27T09:38:14.134Z,16.63
2018-11-27T09:40:45.034Z,16.63
2018-11-27T09:43:15.702Z,18.23
2018-11-27T09:45:47.814Z,16.53
2018-11-27T09:48:18.487Z,16.57
2018-11-27T09:50:49.285Z,16.83
2018-11-27T09:53:20.090Z,17.10
2018-11-27T09:55:50.910Z,16.63
2018-11-27T09:58:21.737Z,17.80
2018-11-27T10:00:52.511Z,17.03
2018-11-27T10:03:23.169Z,17.53
2018-11-27T10:05:53.902Z,16.87
2018-11-27T10:08:24.561Z,17.53
2018-11-27T10:10:55.265Z,16.87
2018-11-27T10:13:25.972Z,16.17
2018-11-27T10:15:56.633Z,16.53
2018-11-27T10:18:27.327Z,16.10
2018-11-27T10:20:57.989Z,16.03
2018-11-27T10:23:28.612Z,16.80
2018-11-27T10:25:59.340Z,17.03
2018-11-27T10:28:32.158Z,16.00
2018-11-27T10:31:00.785Z,15.87
2018-11-27T10:33:31.444Z,14.90
2018-11-27T10:36:02.282Z,15.50
2018-11-27T10:38:32.957Z,15.93
2018-11-27T10:41:04.798Z,15.40
2018-11-27T10:43:35.540Z,15.80
2018-11-27T10:46:06.514Z,15.47
2018-11-27T10:48:37.287Z,14.73
2018-11-27T10:51:08.048Z,16.80
2018-11-27T10:53:38.788Z,15.63
2018-11-27T10:56:09.532Z,14.90
2018-11-27T10:58:40.205Z,14.47
2018-11-27T11:01:15.985Z,15.40
2018-11-27T11:03:46.675Z,15.60
2018-11-27T11:06:17.386Z,15.83
2018-11-27T11:08:48.111Z,15.87
2018-11-27T11:11:18.841Z,15.53
2018-11-27T11:13:49.552Z,15.27
2018-11-27T11:16:20.242Z,15.73
2018-11-27T11:18:51.044Z,16.33
2018-11-27T11:21:21.791Z,16.83
2018-11-27T11:23:52.528Z,16.10
2018-11-27T11:26:23.315Z,16.27
2018-11-27T11:28:54.150Z,17.17
2018-11-27T11:31:24.823Z,16.60
2018-11-27T11:33:55.579Z,16.00
2018-11-27T11:36:26.251Z,16.73
2018-11-27T11:38:56.945Z,16.63
2018-11-27T11:41:31.265Z,17.03
2018-11-27T11:43:58.514Z,16.40
2018-11-27T11:46:29.332Z,16.63
2018-11-27T11:49:01.989Z,16.27
2018-11-27T11:51:30.824Z,15.83
2018-11-27T11:54:01.549Z,16.67
2018-11-27T11:56:32.295Z,13.77
2018-11-27T11:59:02.928Z,14.50
2018-11-27T12:01:33.615Z,14.93
2018-11-27T12:04:04.410Z,12.90
2018-11-27T12:06:35.164Z,12.37
2018-11-27T12:09:08.788Z,13.20
2018-11-27T12:11:39.530Z,13.43
2018-11-27T12:14:10.283Z,14.17
2018-11-27T12:16:40.993Z,12.77
2018-11-27T12:19:11.770Z,12.67
2018-11-27T12:21:42.514Z,13.53
2018-11-27T12:24:13.193Z,12.47
2018-11-27T12:26:43.810Z,13.70
2018-11-27T12:29:14.538Z,12.70
2018-11-27T12:31:45.268Z,13.50
2018-11-27T12:34:16.022Z,13.13
2018-11-27T12:36:46.720Z,13.50
2018-11-27T12:39:17.498Z,13.13
2018-11-27T12:41:48.294Z,13.43
2018-11-27T12:44:19.111Z,13.87
2018-11-27T12:46:49.861Z,13.90
2018-11-27T12:49:20.627Z,12.63
2018-11-27T12:51:51.353Z,13.43
2018-11-27T12:54:22.106Z,12.97
2018-11-27T12:56:52.845Z,11.80
2018-11-27T12:59:23.494Z,12.93
2018-11-27T13:01:54.209Z,13.80
2018-11-27T13:04:24.989Z,12.03
2018-11-27T13:06:55.723Z,11.83
2018-11-27T13:09:26.431Z,13.27
2018-11-27T13:11:57.325Z,13.83
2018-11-27T13:14:28.054Z,13.50
2018-11-27T13:16:58.849Z,12.70
2018-11-27T13:19:29.489Z,12.20
2018-11-27T13:22:00.279Z,13.33
2018-11-27T13:24:30.986Z,14.03
2018-11-27T13:27:01.793Z,11.57
2018-11-27T13:29:32.548Z,11.90
2018-11-27T13:32:03.247Z,11.50
2018-11-27T13:34:33.969Z,10.97
2018-11-27T13:37:04.831Z,11.13
2018-11-27T13:39:38.146Z,11.43
2018-11-27T13:42:09.520Z,10.60
2018-11-27T13:44:40.258Z,10.87
2018-11-27T13:47:10.948Z,10.20
2018-11-27T13:49:41.636Z,10.70
2018-11-27T13:52:12.308Z,11.63
2018-11-27T13:54:43.029Z,11.80
2018-11-27T13:57:13.737Z,11.83
2018-11-27T13:59:44.459Z,12.10
2018-11-27T14:02:15.402Z,11.77
2018-11-27T14:04:46.099Z,11.30
2018-11-27T14:07:16.866Z,11.37
2018-11-27T14:09:47.662Z,12.03
2018-11-27T14:12:18.387Z,12.20
2018-11-27T14:14:49.106Z,12.63
2018-11-27T14:17:19.873Z,12.30
2018-11-27T14:19:50.546Z,11.30
2018-11-27T14:22:25.099Z,11.00
2018-11-27T14:24:52.026Z,11.77
2018-11-27T14:27:22.841Z,10.73
2018-11-27T14:29:53.564Z,11.03
2018-11-27T14:32:24.378Z,11.50
2018-11-27T14:34:59.911Z,10.87
2018-11-27T14:37:25.942Z,11.37
2018-11-27T14:39:56.668Z,10.70
2018-11-27T14:42:27.366Z,10.10
2018-11-27T14:44:58.173Z,9.50
2018-11-27T14:47:28.881Z,10.10
2018-11-27T14:50:04.076Z,10.83
2018-11-27T14:52:30.304Z,9.90
2018-11-27T14:55:01.118Z,9.70
2018-11-27T14:57:31.807Z,9.33
2018-11-27T15:00:02.582Z,10.40
2018-11-27T15:02:33.274Z,9.20
2018-11-27T15:05:04.175Z,9.77
2018-11-27T15:07:34.915Z,8.97
2018-11-27T15:10:08.187Z,8.87
2018-11-27T15:12:39.088Z,8.10
2018-11-27T15:15:13.026Z,7.77
2018-11-27T15:17:43.810Z,8.27
2018-11-27T15:20:19.351Z,7.93
2018-11-27T15:22:50.036Z,8.30
2018-11-27T15:25:20.861Z,9.07
2018-11-27T15:27:51.604Z,8.90
2018-11-27T15:30:27.197Z,9.07
2018-11-27T15:33:00.446Z,9.13
2018-11-27T15:35:31.135Z,8.97
2018-11-27T15:38:01.856Z,8.67
2018-11-27T15:40:32.583Z,9.53
2018-11-27T15:43:03.384Z,9.17
2018-11-27T15:45:35.495Z,8.90
2018-11-27T15:48:09.509Z,8.47
2018-11-27T15:50:40.287Z,8.77
2018-11-27T15:53:11.114Z,9.27
2018-11-27T15:55:41.946Z,9.50
2018-11-27T15:58:14.981Z,9.47
2018-11-27T16:00:45.881Z,9.10
2018-11-27T16:03:16.563Z,9.07
2018-11-27T16:05:47.301Z,9.00
2018-11-27T16:08:17.994Z,9.30
2018-11-27T16:10:48.700Z,9.80
2018-11-27T16:13:19.434Z,9.40
2018-11-27T16:15:50.131Z,9.10
2018-11-27T16:18:20.886Z,8.50
2018-11-27T16:20:51.561Z,8.53
2018-11-27T16:23:22.321Z,8.93
2018-11-27T16:25:53.186Z,8.90
2018-11-27T16:28:23.943Z,8.87
2018-11-27T16:30:54.654Z,8.83
2018-11-27T16:33:25.450Z,8.60
2018-11-27T16:35:56.138Z,8.37
2018-11-27T16:38:26.839Z,8.00
2018-11-27T16:40:57.600Z,8.80
2018-11-27T16:43:28.341Z,7.90
2018-11-27T16:45:59.038Z,9.07
2018-11-27T16:48:29.733Z,8.40
2018-11-27T16:51:00.549Z,9.10
2018-11-27T16:53:31.181Z,8.80
2018-11-27T16:56:03.132Z,9.30
2018-11-27T16:58:32.869Z,9.47
2018-11-27T17:01:08.979Z,8.63
2018-11-27T17:03:34.274Z,8.47
2018-11-27T17:06:04.997Z,8.63
2018-11-27T17:08:35.715Z,9.23
2018-11-27T17:11:06.560Z,9.23
2018-11-27T17:13:37.261Z,8.80
2018-11-27T17:16:08.020Z,8.40
2018-11-27T17:18:38.686Z,8.53
2018-11-27T17:21:09.374Z,8.67
2018-11-27T17:23:40.049Z,8.87
2018-11-27T17:26:10.875Z,8.60
2018-11-27T17:28:41.502Z,8.13
2018-11-27T17:31:14.369Z,8.43
2018-11-27T17:34:03.596Z,8.73
2018-11-27T17:36:34.317Z,8.53
2018-11-27T17:39:07.933Z,8.40
2018-11-27T17:41:38.707Z,8.47
2018-11-27T17:44:12.592Z,8.50
2018-11-27T17:46:43.355Z,8.43
2018-11-27T17:49:14.058Z,8.93
2018-11-27T17:51:44.730Z,8.63
2018-11-27T17:54:15.416Z,9.97
2018-11-27T17:56:46.127Z,9.50
2018-11-27T17:59:16.806Z,9.27
2018-11-27T18:01:47.497Z,9.33
2018-11-27T18:04:18.273Z,8.97
2018-11-27T18:06:48.949Z,8.87
2018-11-27T18:09:19.630Z,8.90
2018-11-27T18:11:50.362Z,8.67
2018-11-27T18:14:21.069Z,9.20
2018-11-27T18:16:52.126Z,9.13
2018-11-27T18:19:22.806Z,8.53
2018-11-27T18:21:53.529Z,9.50
2018-11-27T18:24:24.215Z,8.97
2018-11-27T18:26:54.915Z,9.47
2018-11-27T18:29:25.560Z,9.43
2018-11-27T18:31:56.431Z,10.23
2018-11-27T18:34:27.086Z,10.93
2018-11-27T18:36:57.786Z,9.80
2018-11-27T18:39:28.465Z,9.93
2018-11-27T18:41:59.055Z,9.63
2018-11-27T18:44:29.735Z,8.67
2018-11-27T18:47:00.389Z,9.27
2018-11-27T18:49:31.129Z,9.30
2018-11-27T18:52:01.813Z,8.90
2018-11-27T18:54:32.543Z,9.03
2018-11-27T18:59:48.250Z,8.77
2018-11-27T19:02:18.966Z,9.17
2018-11-27T19:04:49.690Z,9.13
2018-11-27T19:07:20.390Z,10.07
2018-11-27T19:09:51.134Z,9.60
2018-11-27T19:12:22.043Z,9.57
2018-11-27T19:14:52.792Z,10.30
2018-11-27T19:17:23.426Z,9.17
2018-11-27T19:19:54.114Z,9.57
2018-11-27T19:22:24.776Z,10.10
2018-11-27T19:24:55.490Z,9.77
2018-11-27T19:27:26.215Z,10.67
2018-11-27T19:29:56.903Z,11.10
2018-11-27T19:32:27.603Z,10.00
2018-11-27T19:34:58.494Z,10.60
2018-11-27T19:37:29.316Z,10.57
2018-11-27T19:40:00.008Z,10.33
2018-11-27T19:42:30.671Z,10.47
2018-11-27T19:45:01.475Z,10.53
2018-11-27T19:47:32.202Z,10.73
2018-11-27T19:50:03.055Z,10.13
2018-11-27T19:52:33.750Z,10.87
2018-11-27T19:55:04.614Z,10.53
2018-11-27T19:57:35.315Z,10.30
2018-11-27T20:00:17.539Z,10.40
2018-11-27T20:02:48.346Z,11.27
2018-11-27T20:05:23.877Z,10.07
2018-11-27T20:07:54.726Z,11.47
2018-11-27T20:10:25.479Z,10.77
2018-11-27T20:12:56.133Z,10.67
2018-11-27T20:15:28.447Z,10.70
2018-11-27T20:17:59.419Z,12.63
2018-11-27T20:20:30.226Z,12.13
2018-11-27T20:23:01.015Z,11.50
2018-11-27T20:25:31.701Z,11.63
2018-11-27T20:28:02.563Z,12.00
2018-11-27T20:30:33.281Z,10.97
2018-11-27T20:33:04.839Z,11.27
2018-11-27T20:35:35.685Z,11.10
2018-11-27T20:38:09.523Z,10.50
2018-11-27T20:40:41.206Z,10.97
2018-11-27T20:43:12.216Z,10.70
2018-11-27T20:45:42.895Z,11.53
2018-11-27T20:48:18.751Z,11.07
2018-11-27T20:50:51.978Z,11.23
2018-11-27T20:53:22.734Z,10.13
2018-11-27T20:55:53.491Z,9.97
2018-11-27T20:58:24.286Z,10.23
2018-11-27T21:00:55.465Z,10.57
2018-11-27T21:03:26.186Z,11.63
2018-11-27T21:05:56.925Z,10.10
2018-11-27T21:08:27.634Z,11.10
2018-11-27T21:10:58.350Z,11.57
2018-11-27T21:13:28.992Z,11.80
2018-11-27T21:16:30.809Z,11.83
2018-11-27T21:19:01.509Z,11.20
2018-11-27T21:21:32.206Z,11.23
2018-11-27T21:24:02.976Z,11.77
2018-11-27T21:26:33.625Z,11.53
2018-11-27T21:29:04.359Z,12.50
2018-11-27T21:31:35.071Z,12.07
2018-11-27T21:34:05.892Z,11.77
2018-11-27T21:36:36.643Z,11.93
2018-11-27T21:39:09.796Z,11.70
2018-11-27T21:41:40.510Z,11.63
2018-11-27T21:44:11.219Z,11.27
2018-11-27T21:46:41.861Z,11.27
2018-11-27T21:49:12.622Z,11.93
2018-11-27T21:51:43.238Z,12.00
2018-11-27T21:54:13.900Z,12.30
2018-11-27T21:56:44.575Z,11.63
2018-11-27T21:59:15.285Z,11.47
2018-11-27T22:01:45.973Z,12.03
2018-11-27T22:04:16.629Z,13.10
2018-11-27T22:06:47.312Z,11.63
2018-11-27T22:09:18.064Z,12.33
2018-11-27T22:11:48.707Z,11.97
2018-11-27T22:14:19.348Z,12.13
2018-11-27T22:16:50.058Z,12.13
2018-11-27T22:19:20.753Z,12.70
2018-11-27T22:21:51.480Z,11.80
2018-11-27T22:24:22.200Z,11.90
2018-11-27T22:26:52.839Z,11.97
2018-11-27T22:29:23.503Z,12.50
2018-11-27T22:31:54.190Z,11.33
2018-11-27T22:34:24.884Z,11.80
2018-11-27T22:36:55.584Z,12.43
2018-11-27T22:39:26.244Z,12.27
2018-11-27T22:41:56.867Z,11.70
2018-11-27T22:44:27.554Z,11.63
2018-11-27T22:46:58.245Z,11.63
2018-11-27T22:49:28.886Z,12.13
2018-11-27T22:51:59.530Z,12.33
2018-11-27T22:54:30.210Z,11.87
2018-11-27T22:57:00.878Z,11.40
2018-11-27T22:59:31.554Z,12.07
2018-11-27T23:02:02.233Z,11.20
2018-11-27T23:04:32.908Z,12.23
2018-11-27T23:07:03.560Z,12.13
2018-11-27T23:09:34.263Z,12.47
2018-11-27T23:12:05.130Z,11.57
2018-11-27T23:14:35.822Z,11.63
2018-11-27T23:17:06.622Z,11.77
2018-11-27T23:19:37.414Z,11.73
2018-11-27T23:22:08.139Z,11.00
2018-11-27T23:24:38.943Z,12.43
2018-11-27T23:27:09.644Z,12.80
2018-11-27T23:29:40.618Z,11.90
2018-11-27T23:32:11.284Z,11.30
2018-11-27T23:34:41.951Z,11.90
2018-11-27T23:37:12.671Z,11.40
2018-11-27T23:39:43.381Z,11.00
2018-11-27T23:42:14.077Z,10.80
2018-11-27T23:44:44.733Z,11.40
2018-11-27T23:47:15.474Z,11.10
2018-11-27T23:49:46.144Z,11.60
2018-11-27T23:52:16.894Z,11.33
2018-11-27T23:54:47.576Z,10.40
2018-11-27T23:57:18.211Z,11.27
2018-11-27T23:59:48.889Z,11.97
